Magnolia, Arkansas
Current Conditions -  °F | °C
As of 7:53 PM on Thursday 18 Dec 2014 (Local Time) from KELD Reporting Station
Overcast Overcast  
Wind Chill: 44°   Ceiling: 1000
Heat Index: 47°   Visibility: 10mi
Dew Point: 45°   Wind: 7mph
Humidity: 93%   Direction: 30°NNE
Pressure: 30.18"   Gusts: NA
Location:  33.27°N, 93.24°W
Report Text: KELD 190153Z AUTO 03006KT 10SM OVC010 08/07 A3018 RMK AO2 CIG 007V012 SLP219 T00830072
Loading
Personal Weather Stations






























Interactive Weather Map New forecast layout! Learn more

10-Day Weather Forecast

Advertisements
Track Severe Weather on mobile